Portada
METAR-TAF:

METAR-TAF

Aeroports :

North Perry Airport

Hollywood, Florida, Estats Units d'Amèrica

latitud: 25-59-56N, longitud: 080-14-28W, altitud: 2 m

Observació

L'informe es va fer fa 1 hora i 8 minuts, a les 16:53 UTC
Vent 19 kt del Nord-Oest amb ràfegues de 25 kt
Temperatura 18°C
Humitat 45%
Pressió 1022 hPa
Visibilitat: 16.1 km
Cel clar

METAR: KHWO 271653Z 32019G25KT 10SM CLR 18/06 A3018 RMK AO2 PK WND 32026/1602 SLP220 T01830056

Hora: 13:01 (18:01 UTC)


TAF: manca

Observacions i pronòstics meteorològics de més de 4000 aeroports (METAR i TAF).

Les estacions disponibles són els punts grocs i vermells al mapa.

Posi el ratolí al punt desitjat per veure el nom de l'estació.

Feu clic per veure les observacions i els pronòstics meteorològics.

Per canviar el mapa: feu clic els botons verds amb una creu de color negre per apropar; al botó verd amb un guió per allunyar la imatge; o en les fletxes verdes per a mapes adjacents.


METAR-TAF: